sensor_id;sensor_type;location;lat;lon;timestamp;P1;durP1;ratioP1;P2;durP2;ratioP2
70549;SDS011;58101;48.658;2.328;2022-11-15T00:02:22;12.40;;;2.75;;
70549;SDS011;58101;48.658;2.328;2022-11-15T00:04:47;11.10;;;2.28;;
70549;SDS011;58101;48.658;2.328;2022-11-15T00:07:13;8.15;;;2.58;;
70549;SDS011;58101;48.658;2.328;2022-11-15T00:09:38;10.82;;;2.70;;
70549;SDS011;58101;48.658;2.328;2022-11-15T00:12:04;8.48;;;2.40;;
70549;SDS011;58101;48.658;2.328;2022-11-15T00:14:30;8.43;;;2.33;;
70549;SDS011;58101;48.658;2.328;2022-11-15T00:16:55;7.53;;;2.30;;
70549;SDS011;58101;48.658;2.328;2022-11-15T00:19:21;10.27;;;2.72;;
70549;SDS011;58101;48.658;2.328;2022-11-15T00:21:47;9.82;;;2.30;;
70549;SDS011;58101;48.658;2.328;2022-11-15T00:24:12;7.80;;;2.03;;
70549;SDS011;58101;48.658;2.328;2022-11-15T00:26:38;10.48;;;2.20;;
70549;SDS011;58101;48.658;2.328;2022-11-15T00:29:03;10.05;;;2.22;;
70549;SDS011;58101;48.658;2.328;2022-11-15T00:31:29;8.23;;;1.98;;
70549;SDS011;58101;48.658;2.328;2022-11-15T00:33:55;10.65;;;2.20;;
70549;SDS011;58101;48.658;2.328;2022-11-15T00:36:20;9.75;;;2.33;;
70549;SDS011;58101;48.658;2.328;2022-11-15T00:38:46;8.48;;;2.20;;
70549;SDS011;58101;48.658;2.328;2022-11-15T00:41:11;9.15;;;2.20;;
70549;SDS011;58101;48.658;2.328;2022-11-15T00:43:37;10.68;;;2.13;;
70549;SDS011;58101;48.658;2.328;2022-11-15T00:46:04;7.95;;;2.15;;
70549;SDS011;58101;48.658;2.328;2022-11-15T00:48:31;8.63;;;2.30;;
70549;SDS011;58101;48.658;2.328;2022-11-15T00:50:57;10.15;;;2.35;;
70549;SDS011;58101;48.658;2.328;2022-11-15T00:53:22;10.20;;;2.10;;
70549;SDS011;58101;48.658;2.328;2022-11-15T00:55:48;6.60;;;2.22;;
70549;SDS011;58101;48.658;2.328;2022-11-15T00:58:13;11.30;;;2.53;;
70549;SDS011;58101;48.658;2.328;2022-11-15T01:00:39;9.07;;;2.40;;
70549;SDS011;58101;48.658;2.328;2022-11-15T01:03:05;7.93;;;2.05;;
70549;SDS011;58101;48.658;2.328;2022-11-15T01:05:30;10.52;;;2.00;;
70549;SDS011;58101;48.658;2.328;2022-11-15T01:07:57;10.95;;;2.70;;
70549;SDS011;58101;48.658;2.328;2022-11-15T01:10:23;8.13;;;2.20;;
70549;SDS011;58101;48.658;2.328;2022-11-15T01:12:49;10.73;;;2.10;;
70549;SDS011;58101;48.658;2.328;2022-11-15T01:15:15;12.98;;;2.53;;
70549;SDS011;58101;48.658;2.328;2022-11-15T01:17:40;7.40;;;1.98;;
70549;SDS011;58101;48.658;2.328;2022-11-15T01:20:06;11.25;;;2.67;;
70549;SDS011;58101;48.658;2.328;2022-11-15T01:22:32;8.30;;;2.10;;
70549;SDS011;58101;48.658;2.328;2022-11-15T01:24:58;7.72;;;2.30;;
70549;SDS011;58101;48.658;2.328;2022-11-15T01:27:24;10.18;;;2.60;;
70549;SDS011;58101;48.658;2.328;2022-11-15T01:29:49;9.35;;;2.22;;
70549;SDS011;58101;48.658;2.328;2022-11-15T01:32:15;12.82;;;2.45;;
70549;SDS011;58101;48.658;2.328;2022-11-15T01:34:41;9.68;;;2.15;;
70549;SDS011;58101;48.658;2.328;2022-11-15T01:37:06;7.15;;;1.90;;
70549;SDS011;58101;48.658;2.328;2022-11-15T01:39:32;12.13;;;2.42;;
70549;SDS011;58101;48.658;2.328;2022-11-15T01:41:58;11.40;;;2.40;;
70549;SDS011;58101;48.658;2.328;2022-11-15T01:47:30;9.50;;;2.17;;
70549;SDS011;58101;48.658;2.328;2022-11-15T01:50:08;9.80;;;2.00;;
70549;SDS011;58101;48.658;2.328;2022-11-15T01:52:37;11.55;;;2.13;;
70549;SDS011;58101;48.658;2.328;2022-11-15T01:55:20;10.13;;;1.90;;
70549;SDS011;58101;48.658;2.328;2022-11-15T01:57:50;6.78;;;2.10;;
70549;SDS011;58101;48.658;2.328;2022-11-15T02:00:19;11.40;;;2.15;;
70549;SDS011;58101;48.658;2.328;2022-11-15T02:02:44;8.35;;;2.13;;
70549;SDS011;58101;48.658;2.328;2022-11-15T02:05:10;11.82;;;2.00;;
70549;SDS011;58101;48.658;2.328;2022-11-15T02:07:36;12.18;;;2.25;;
70549;SDS011;58101;48.658;2.328;2022-11-15T02:10:04;10.45;;;2.17;;
70549;SDS011;58101;48.658;2.328;2022-11-15T02:12:36;11.38;;;2.30;;
70549;SDS011;58101;48.658;2.328;2022-11-15T02:15:02;9.90;;;2.40;;
70549;SDS011;58101;48.658;2.328;2022-11-15T02:23:14;8.00;;;2.08;;
70549;SDS011;58101;48.658;2.328;2022-11-15T02:34:02;10.45;;;2.03;;
70549;SDS011;58101;48.658;2.328;2022-11-15T02:36:38;10.77;;;2.35;;
70549;SDS011;58101;48.658;2.328;2022-11-15T02:39:18;7.70;;;2.05;;
70549;SDS011;58101;48.658;2.328;2022-11-15T02:41:55;8.82;;;1.90;;
70549;SDS011;58101;48.658;2.328;2022-11-15T02:44:32;8.35;;;2.17;;
70549;SDS011;58101;48.658;2.328;2022-11-15T02:47:03;9.07;;;2.03;;
70549;SDS011;58101;48.658;2.328;2022-11-15T02:49:39;8.60;;;2.10;;
70549;SDS011;58101;48.658;2.328;2022-11-15T02:52:08;8.60;;;2.20;;
70549;SDS011;58101;48.658;2.328;2022-11-15T02:54:33;8.75;;;2.38;;
70549;SDS011;58101;48.658;2.328;2022-11-15T02:57:07;8.32;;;1.92;;
70549;SDS011;58101;48.658;2.328;2022-11-15T03:08:26;9.07;;;2.10;;
70549;SDS011;58101;48.658;2.328;2022-11-15T03:11:05;8.88;;;2.25;;
70549;SDS011;58101;48.658;2.328;2022-11-15T03:16:33;10.27;;;1.92;;
70549;SDS011;58101;48.658;2.328;2022-11-15T03:21:53;9.75;;;1.88;;
70549;SDS011;58101;48.658;2.328;2022-11-15T03:24:20;9.32;;;1.70;;
70549;SDS011;58101;48.658;2.328;2022-11-15T03:26:50;8.20;;;1.77;;
70549;SDS011;58101;48.658;2.328;2022-11-15T03:29:18;8.07;;;1.80;;
70549;SDS011;58101;48.658;2.328;2022-11-15T03:31:50;6.78;;;1.70;;
70549;SDS011;58101;48.658;2.328;2022-11-15T03:37:16;7.45;;;1.60;;
70549;SDS011;58101;48.658;2.328;2022-11-15T03:39:46;8.02;;;1.60;;
70549;SDS011;58101;48.658;2.328;2022-11-15T03:44:52;9.23;;;1.63;;
70549;SDS011;58101;48.658;2.328;2022-11-15T03:47:32;10.23;;;1.48;;
70549;SDS011;58101;48.658;2.328;2022-11-15T03:50:06;7.45;;;1.45;;
70549;SDS011;58101;48.658;2.328;2022-11-15T03:52:35;8.32;;;1.70;;
70549;SDS011;58101;48.658;2.328;2022-11-15T03:55:03;7.00;;;1.70;;
70549;SDS011;58101;48.658;2.328;2022-11-15T03:57:30;6.35;;;1.60;;
70549;SDS011;58101;48.658;2.328;2022-11-15T03:59:59;9.55;;;1.60;;
70549;SDS011;58101;48.658;2.328;2022-11-15T04:02:24;8.50;;;1.70;;
70549;SDS011;58101;48.658;2.328;2022-11-15T04:04:50;8.65;;;1.45;;
70549;SDS011;58101;48.658;2.328;2022-11-15T04:07:16;8.88;;;1.50;;
70549;SDS011;58101;48.658;2.328;2022-11-15T04:09:41;10.18;;;1.80;;
70549;SDS011;58101;48.658;2.328;2022-11-15T04:12:26;14.48;;;1.95;;
70549;SDS011;58101;48.658;2.328;2022-11-15T04:15:01;5.32;;;1.55;;
70549;SDS011;58101;48.658;2.328;2022-11-15T04:18:06;6.07;;;1.55;;
70549;SDS011;58101;48.658;2.328;2022-11-15T04:20:25;8.10;;;1.65;;
70549;SDS011;58101;48.658;2.328;2022-11-15T04:25:57;7.50;;;1.50;;
70549;SDS011;58101;48.658;2.328;2022-11-15T04:28:25;11.57;;;1.73;;
70549;SDS011;58101;48.658;2.328;2022-11-15T04:30:51;7.65;;;1.67;;
70549;SDS011;58101;48.658;2.328;2022-11-15T04:33:17;11.18;;;2.00;;
70549;SDS011;58101;48.658;2.328;2022-11-15T04:35:43;9.32;;;1.70;;
70549;SDS011;58101;48.658;2.328;2022-11-15T04:38:29;11.63;;;1.60;;
70549;SDS011;58101;48.658;2.328;2022-11-15T04:40:55;7.28;;;1.63;;
70549;SDS011;58101;48.658;2.328;2022-11-15T04:43:20;9.00;;;1.60;;
70549;SDS011;58101;48.658;2.328;2022-11-15T04:45:46;11.93;;;1.85;;
70549;SDS011;58101;48.658;2.328;2022-11-15T04:48:11;6.90;;;1.80;;
70549;SDS011;58101;48.658;2.328;2022-11-15T04:50:37;9.10;;;1.77;;
70549;SDS011;58101;48.658;2.328;2022-11-15T04:53:03;7.60;;;1.58;;
70549;SDS011;58101;48.658;2.328;2022-11-15T04:55:28;7.45;;;1.50;;
70549;SDS011;58101;48.658;2.328;2022-11-15T04:58:00;8.15;;;1.92;;
70549;SDS011;58101;48.658;2.328;2022-11-15T05:00:27;9.13;;;1.90;;
70549;SDS011;58101;48.658;2.328;2022-11-15T05:02:54;9.82;;;1.70;;
70549;SDS011;58101;48.658;2.328;2022-11-15T05:05:39;11.57;;;2.20;;
70549;SDS011;58101;48.658;2.328;2022-11-15T05:08:04;11.05;;;2.03;;
70549;SDS011;58101;48.658;2.328;2022-11-15T05:10:30;9.18;;;1.92;;
70549;SDS011;58101;48.658;2.328;2022-11-15T05:12:55;10.15;;;2.05;;
70549;SDS011;58101;48.658;2.328;2022-11-15T05:15:21;8.80;;;2.10;;
70549;SDS011;58101;48.658;2.328;2022-11-15T05:17:47;7.88;;;2.17;;
70549;SDS011;58101;48.658;2.328;2022-11-15T05:20:12;7.80;;;2.03;;
70549;SDS011;58101;48.658;2.328;2022-11-15T05:22:38;9.77;;;2.20;;
70549;SDS011;58101;48.658;2.328;2022-11-15T05:25:04;9.45;;;2.13;;
70549;SDS011;58101;48.658;2.328;2022-11-15T05:27:30;7.93;;;2.22;;
70549;SDS011;58101;48.658;2.328;2022-11-15T05:29:56;8.68;;;2.50;;
70549;SDS011;58101;48.658;2.328;2022-11-15T05:32:21;8.68;;;2.80;;
70549;SDS011;58101;48.658;2.328;2022-11-15T05:34:47;11.88;;;2.33;;
70549;SDS011;58101;48.658;2.328;2022-11-15T05:37:13;9.35;;;2.42;;
70549;SDS011;58101;48.658;2.328;2022-11-15T05:39:39;10.10;;;2.22;;
70549;SDS011;58101;48.658;2.328;2022-11-15T05:42:14;9.90;;;2.50;;
70549;SDS011;58101;48.658;2.328;2022-11-15T05:44:41;11.63;;;2.13;;
70549;SDS011;58101;48.658;2.328;2022-11-15T05:47:12;11.10;;;2.33;;
70549;SDS011;58101;48.658;2.328;2022-11-15T05:49:42;11.13;;;2.45;;
70549;SDS011;58101;48.658;2.328;2022-11-15T05:52:09;7.95;;;2.28;;
70549;SDS011;58101;48.658;2.328;2022-11-15T05:54:38;8.57;;;2.20;;
70549;SDS011;58101;48.658;2.328;2022-11-15T05:57:04;8.80;;;2.20;;
70549;SDS011;58101;48.658;2.328;2022-11-15T05:59:30;9.05;;;2.28;;
70549;SDS011;58101;48.658;2.328;2022-11-15T06:01:57;7.82;;;2.00;;
70549;SDS011;58101;48.658;2.328;2022-11-15T06:04:23;8.40;;;1.85;;
70549;SDS011;58101;48.658;2.328;2022-11-15T06:06:49;9.32;;;2.03;;
70549;SDS011;58101;48.658;2.328;2022-11-15T06:09:14;7.85;;;2.08;;
70549;SDS011;58101;48.658;2.328;2022-11-15T06:11:40;10.88;;;2.10;;
70549;SDS011;58101;48.658;2.328;2022-11-15T06:14:06;7.25;;;2.13;;
70549;SDS011;58101;48.658;2.328;2022-11-15T06:16:31;8.45;;;2.00;;
70549;SDS011;58101;48.658;2.328;2022-11-15T06:18:57;6.78;;;2.08;;
70549;SDS011;58101;48.658;2.328;2022-11-15T06:21:23;8.13;;;2.22;;
70549;SDS011;58101;48.658;2.328;2022-11-15T06:23:48;8.88;;;2.10;;
70549;SDS011;58101;48.658;2.328;2022-11-15T06:26:14;9.70;;;2.15;;
70549;SDS011;58101;48.658;2.328;2022-11-15T06:28:39;9.73;;;2.05;;
70549;SDS011;58101;48.658;2.328;2022-11-15T06:31:06;7.85;;;2.28;;
70549;SDS011;58101;48.658;2.328;2022-11-15T06:33:38;7.68;;;2.20;;
70549;SDS011;58101;48.658;2.328;2022-11-15T06:36:05;10.52;;;2.40;;
70549;SDS011;58101;48.658;2.328;2022-11-15T06:38:32;11.40;;;2.85;;
70549;SDS011;58101;48.658;2.328;2022-11-15T06:41:04;11.43;;;2.22;;
70549;SDS011;58101;48.658;2.328;2022-11-15T06:43:31;9.32;;;2.30;;
70549;SDS011;58101;48.658;2.328;2022-11-15T06:45:58;8.98;;;2.30;;
70549;SDS011;58101;48.658;2.328;2022-11-15T06:48:25;11.13;;;2.38;;
70549;SDS011;58101;48.658;2.328;2022-11-15T06:50:51;9.30;;;2.13;;
70549;SDS011;58101;48.658;2.328;2022-11-15T06:53:17;10.18;;;2.25;;
70549;SDS011;58101;48.658;2.328;2022-11-15T06:55:43;8.70;;;2.05;;
70549;SDS011;58101;48.658;2.328;2022-11-15T06:58:09;9.65;;;2.20;;
70549;SDS011;58101;48.658;2.328;2022-11-15T07:00:35;9.90;;;2.67;;
70549;SDS011;58101;48.658;2.328;2022-11-15T07:03:00;8.73;;;2.92;;
70549;SDS011;58101;48.658;2.328;2022-11-15T07:05:27;10.20;;;2.60;;
70549;SDS011;58101;48.658;2.328;2022-11-15T07:07:53;10.82;;;2.58;;
70549;SDS011;58101;48.658;2.328;2022-11-15T07:10:22;11.23;;;2.58;;
70549;SDS011;58101;48.658;2.328;2022-11-15T07:12:52;9.30;;;2.55;;
70549;SDS011;58101;48.658;2.328;2022-11-15T07:15:22;8.18;;;2.50;;
70549;SDS011;58101;48.658;2.328;2022-11-15T07:17:49;9.18;;;2.65;;
70549;SDS011;58101;48.658;2.328;2022-11-15T07:20:19;11.38;;;2.70;;
70549;SDS011;58101;48.658;2.328;2022-11-15T07:22:45;12.45;;;3.40;;
70549;SDS011;58101;48.658;2.328;2022-11-15T07:25:10;8.32;;;2.40;;
70549;SDS011;58101;48.658;2.328;2022-11-15T07:27:37;10.57;;;2.60;;
70549;SDS011;58101;48.658;2.328;2022-11-15T07:30:03;8.48;;;2.35;;
70549;SDS011;58101;48.658;2.328;2022-11-15T07:35:35;8.77;;;2.40;;
70549;SDS011;58101;48.658;2.328;2022-11-15T07:38:02;9.38;;;2.20;;
70549;SDS011;58101;48.658;2.328;2022-11-15T07:40:28;11.50;;;2.30;;
70549;SDS011;58101;48.658;2.328;2022-11-15T07:42:58;10.15;;;2.33;;
70549;SDS011;58101;48.658;2.328;2022-11-15T07:45:28;9.50;;;2.10;;
70549;SDS011;58101;48.658;2.328;2022-11-15T07:47:53;16.08;;;2.55;;
70549;SDS011;58101;48.658;2.328;2022-11-15T07:50:21;10.95;;;2.20;;
70549;SDS011;58101;48.658;2.328;2022-11-15T07:52:47;7.55;;;2.22;;
70549;SDS011;58101;48.658;2.328;2022-11-15T07:55:17;8.30;;;2.00;;
70549;SDS011;58101;48.658;2.328;2022-11-15T07:57:43;11.00;;;2.10;;
70549;SDS011;58101;48.658;2.328;2022-11-15T08:00:09;8.40;;;1.98;;
70549;SDS011;58101;48.658;2.328;2022-11-15T08:02:35;8.20;;;2.13;;
70549;SDS011;58101;48.658;2.328;2022-11-15T08:05:00;8.40;;;2.10;;
70549;SDS011;58101;48.658;2.328;2022-11-15T08:07:28;8.38;;;1.80;;
70549;SDS011;58101;48.658;2.328;2022-11-15T08:09:55;10.10;;;2.00;;
70549;SDS011;58101;48.658;2.328;2022-11-15T08:12:21;7.28;;;2.10;;
70549;SDS011;58101;48.658;2.328;2022-11-15T08:14:47;8.25;;;2.22;;
70549;SDS011;58101;48.658;2.328;2022-11-15T08:22:24;7.35;;;2.08;;
70549;SDS011;58101;48.658;2.328;2022-11-15T08:24:49;10.93;;;2.50;;
70549;SDS011;58101;48.658;2.328;2022-11-15T08:27:15;11.20;;;2.28;;
70549;SDS011;58101;48.658;2.328;2022-11-15T08:29:43;9.88;;;2.33;;
70549;SDS011;58101;48.658;2.328;2022-11-15T08:32:10;9.07;;;2.00;;
70549;SDS011;58101;48.658;2.328;2022-11-15T08:34:36;10.52;;;1.90;;
70549;SDS011;58101;48.658;2.328;2022-11-15T08:37:02;7.65;;;2.15;;
70549;SDS011;58101;48.658;2.328;2022-11-15T08:39:28;6.22;;;1.65;;
70549;SDS011;58101;48.658;2.328;2022-11-15T08:41:54;8.23;;;1.50;;
70549;SDS011;58101;48.658;2.328;2022-11-15T08:44:28;10.57;;;1.90;;
70549;SDS011;58101;48.658;2.328;2022-11-15T08:46:54;8.13;;;1.75;;
70549;SDS011;58101;48.658;2.328;2022-11-15T08:49:20;8.90;;;2.10;;
70549;SDS011;58101;48.658;2.328;2022-11-15T08:51:45;10.13;;;1.75;;
70549;SDS011;58101;48.658;2.328;2022-11-15T08:54:11;7.63;;;1.65;;
70549;SDS011;58101;48.658;2.328;2022-11-15T08:56:36;6.70;;;1.60;;
70549;SDS011;58101;48.658;2.328;2022-11-15T08:59:02;7.85;;;1.60;;
70549;SDS011;58101;48.658;2.328;2022-11-15T09:01:28;6.68;;;1.33;;
70549;SDS011;58101;48.658;2.328;2022-11-15T09:03:53;9.20;;;1.65;;
70549;SDS011;58101;48.658;2.328;2022-11-15T09:06:19;6.47;;;1.75;;
70549;SDS011;58101;48.658;2.328;2022-11-15T09:08:45;7.13;;;1.92;;
70549;SDS011;58101;48.658;2.328;2022-11-15T09:11:11;7.10;;;1.60;;
70549;SDS011;58101;48.658;2.328;2022-11-15T09:13:37;9.25;;;1.80;;
70549;SDS011;58101;48.658;2.328;2022-11-15T09:16:03;5.97;;;1.50;;
70549;SDS011;58101;48.658;2.328;2022-11-15T09:18:29;6.25;;;1.65;;
70549;SDS011;58101;48.658;2.328;2022-11-15T09:20:58;5.40;;;1.30;;
70549;SDS011;58101;48.658;2.328;2022-11-15T09:23:25;6.45;;;1.50;;
70549;SDS011;58101;48.658;2.328;2022-11-15T09:25:51;8.25;;;1.42;;
70549;SDS011;58101;48.658;2.328;2022-11-15T09:33:09;8.70;;;2.83;;
70549;SDS011;58101;48.658;2.328;2022-11-15T09:35:36;6.15;;;1.90;;
70549;SDS011;58101;48.658;2.328;2022-11-15T09:38:02;6.63;;;2.13;;
70549;SDS011;58101;48.658;2.328;2022-11-15T09:40:29;7.72;;;1.90;;
70549;SDS011;58101;48.658;2.328;2022-11-15T09:43:03;8.60;;;1.80;;
70549;SDS011;58101;48.658;2.328;2022-11-15T09:51:07;6.00;;;1.55;;
70549;SDS011;58101;48.658;2.328;2022-11-15T09:53:41;5.97;;;1.58;;
70549;SDS011;58101;48.658;2.328;2022-11-15T09:56:32;6.45;;;1.70;;
70549;SDS011;58101;48.658;2.328;2022-11-15T10:02:17;7.00;;;2.00;;
70549;SDS011;58101;48.658;2.328;2022-11-15T10:04:22;8.73;;;2.65;;
70549;SDS011;58101;48.658;2.328;2022-11-15T10:06:53;7.70;;;2.03;;
70549;SDS011;58101;48.658;2.328;2022-11-15T10:09:28;8.13;;;2.30;;
70549;SDS011;58101;48.658;2.328;2022-11-15T10:12:15;6.35;;;1.88;;
70549;SDS011;58101;48.658;2.328;2022-11-15T10:14:42;8.30;;;1.90;;
70549;SDS011;58101;48.658;2.328;2022-11-15T10:17:21;8.70;;;3.00;;
70549;SDS011;58101;48.658;2.328;2022-11-15T10:20:10;8.30;;;2.40;;
70549;SDS011;58101;48.658;2.328;2022-11-15T10:22:52;8.35;;;2.38;;
70549;SDS011;58101;48.658;2.328;2022-11-15T10:25:22;10.63;;;2.40;;
70549;SDS011;58101;48.658;2.328;2022-11-15T10:28:13;7.72;;;2.08;;
70549;SDS011;58101;48.658;2.328;2022-11-15T10:30:46;8.65;;;2.30;;
70549;SDS011;58101;48.658;2.328;2022-11-15T10:46:47;9.18;;;2.50;;
70549;SDS011;58101;48.658;2.328;2022-11-15T10:49:29;8.25;;;2.30;;
70549;SDS011;58101;48.658;2.328;2022-11-15T10:51:58;7.78;;;2.00;;
70549;SDS011;58101;48.658;2.328;2022-11-15T10:54:39;7.50;;;2.40;;
70549;SDS011;58101;48.658;2.328;2022-11-15T10:57:12;6.70;;;1.98;;
70549;SDS011;58101;48.658;2.328;2022-11-15T10:59:45;8.25;;;2.47;;
70549;SDS011;58101;48.658;2.328;2022-11-15T11:05:00;8.15;;;2.15;;
70549;SDS011;58101;48.658;2.328;2022-11-15T11:07:29;6.72;;;2.28;;
70549;SDS011;58101;48.658;2.328;2022-11-15T11:09:57;9.00;;;2.92;;
70549;SDS011;58101;48.658;2.328;2022-11-15T11:12:41;10.93;;;4.03;;
70549;SDS011;58101;48.658;2.328;2022-11-15T11:15:14;6.72;;;2.50;;
70549;SDS011;58101;48.658;2.328;2022-11-15T11:17:46;10.77;;;3.10;;
70549;SDS011;58101;48.658;2.328;2022-11-15T11:20:46;7.57;;;2.50;;
70549;SDS011;58101;48.658;2.328;2022-11-15T11:26:23;7.32;;;2.65;;
70549;SDS011;58101;48.658;2.328;2022-11-15T11:29:04;13.48;;;4.40;;
70549;SDS011;58101;48.658;2.328;2022-11-15T11:39:29;14.32;;;2.58;;
70549;SDS011;58101;48.658;2.328;2022-11-15T11:44:28;12.15;;;2.67;;
70549;SDS011;58101;48.658;2.328;2022-11-15T11:47:00;7.93;;;2.50;;
70549;SDS011;58101;48.658;2.328;2022-11-15T11:52:12;8.95;;;3.08;;
70549;SDS011;58101;48.658;2.328;2022-11-15T12:00:45;11.63;;;4.05;;
70549;SDS011;58101;48.658;2.328;2022-11-15T12:06:02;14.52;;;3.95;;
70549;SDS011;58101;48.658;2.328;2022-11-15T12:13:43;13.50;;;4.40;;
70549;SDS011;58101;48.658;2.328;2022-11-15T12:16:20;18.25;;;4.68;;
70549;SDS011;58101;48.658;2.328;2022-11-15T12:18:53;15.52;;;4.43;;
70549;SDS011;58101;48.658;2.328;2022-11-15T12:21:24;14.77;;;4.13;;
70549;SDS011;58101;48.658;2.328;2022-11-15T12:24:17;11.55;;;3.50;;
70549;SDS011;58101;48.658;2.328;2022-11-15T12:26:54;16.95;;;5.30;;
70549;SDS011;58101;48.658;2.328;2022-11-15T12:29:33;14.07;;;4.72;;
70549;SDS011;58101;48.658;2.328;2022-11-15T12:32:03;12.02;;;3.80;;
70549;SDS011;58101;48.658;2.328;2022-11-15T12:34:35;12.70;;;4.35;;
70549;SDS011;58101;48.658;2.328;2022-11-15T12:40:17;13.85;;;4.32;;
70549;SDS011;58101;48.658;2.328;2022-11-15T12:45:28;9.38;;;3.55;;
70549;SDS011;58101;48.658;2.328;2022-11-15T12:48:44;8.80;;;3.60;;
70549;SDS011;58101;48.658;2.328;2022-11-15T12:58:40;10.05;;;3.80;;
70549;SDS011;58101;48.658;2.328;2022-11-15T13:07:05;9.77;;;3.30;;
70549;SDS011;58101;48.658;2.328;2022-11-15T13:12:01;9.70;;;3.70;;
70549;SDS011;58101;48.658;2.328;2022-11-15T13:14:51;7.53;;;3.50;;
70549;SDS011;58101;48.658;2.328;2022-11-15T13:17:49;9.00;;;3.15;;
70549;SDS011;58101;48.658;2.328;2022-11-15T13:30:34;11.52;;;4.18;;
70549;SDS011;58101;48.658;2.328;2022-11-15T13:33:07;10.88;;;3.80;;
70549;SDS011;58101;48.658;2.328;2022-11-15T13:36:26;10.82;;;3.63;;
70549;SDS011;58101;48.658;2.328;2022-11-15T13:38:38;10.13;;;4.00;;
70549;SDS011;58101;48.658;2.328;2022-11-15T13:41:18;10.82;;;4.03;;
70549;SDS011;58101;48.658;2.328;2022-11-15T13:43:45;12.07;;;3.85;;
70549;SDS011;58101;48.658;2.328;2022-11-15T13:46:28;11.18;;;3.85;;
70549;SDS011;58101;48.658;2.328;2022-11-15T13:48:59;12.23;;;4.40;;
70549;SDS011;58101;48.658;2.328;2022-11-15T13:51:36;11.45;;;5.00;;
70549;SDS011;58101;48.658;2.328;2022-11-15T13:56:37;10.93;;;4.97;;
70549;SDS011;58101;48.658;2.328;2022-11-15T13:59:10;13.27;;;4.50;;
70549;SDS011;58101;48.658;2.328;2022-11-15T14:01:50;11.05;;;4.45;;
70549;SDS011;58101;48.658;2.328;2022-11-15T14:06:45;10.25;;;4.10;;
70549;SDS011;58101;48.658;2.328;2022-11-15T14:09:29;11.35;;;4.20;;
70549;SDS011;58101;48.658;2.328;2022-11-15T14:11:56;10.10;;;4.05;;
70549;SDS011;58101;48.658;2.328;2022-11-15T14:14:23;10.98;;;4.18;;
70549;SDS011;58101;48.658;2.328;2022-11-15T14:16:51;10.57;;;3.83;;
70549;SDS011;58101;48.658;2.328;2022-11-15T14:25:04;11.10;;;4.13;;
70549;SDS011;58101;48.658;2.328;2022-11-15T14:27:40;12.52;;;5.40;;
70549;SDS011;58101;48.658;2.328;2022-11-15T14:30:12;15.50;;;4.30;;
70549;SDS011;58101;48.658;2.328;2022-11-15T14:32:46;12.65;;;5.10;;
70549;SDS011;58101;48.658;2.328;2022-11-15T14:35:15;11.02;;;4.28;;
70549;SDS011;58101;48.658;2.328;2022-11-15T14:37:43;12.70;;;4.82;;
70549;SDS011;58101;48.658;2.328;2022-11-15T14:40:11;11.35;;;4.30;;
70549;SDS011;58101;48.658;2.328;2022-11-15T14:42:39;11.20;;;4.50;;
70549;SDS011;58101;48.658;2.328;2022-11-15T14:45:10;11.60;;;4.38;;
70549;SDS011;58101;48.658;2.328;2022-11-15T14:47:38;10.30;;;4.13;;
70549;SDS011;58101;48.658;2.328;2022-11-15T14:50:04;12.45;;;4.78;;
70549;SDS011;58101;48.658;2.328;2022-11-15T14:52:30;11.65;;;4.20;;
70549;SDS011;58101;48.658;2.328;2022-11-15T14:55:01;11.73;;;4.40;;
70549;SDS011;58101;48.658;2.328;2022-11-15T14:57:28;11.57;;;4.50;;
70549;SDS011;58101;48.658;2.328;2022-11-15T14:59:55;16.48;;;6.57;;
70549;SDS011;58101;48.658;2.328;2022-11-15T15:02:25;10.48;;;4.38;;
70549;SDS011;58101;48.658;2.328;2022-11-15T15:04:52;10.20;;;4.13;;
70549;SDS011;58101;48.658;2.328;2022-11-15T15:07:18;10.73;;;3.83;;
70549;SDS011;58101;48.658;2.328;2022-11-15T15:09:45;13.18;;;4.88;;
70549;SDS011;58101;48.658;2.328;2022-11-15T15:12:18;10.45;;;4.05;;
70549;SDS011;58101;48.658;2.328;2022-11-15T15:14:48;10.98;;;3.78;;
70549;SDS011;58101;48.658;2.328;2022-11-15T15:17:15;9.30;;;3.90;;
70549;SDS011;58101;48.658;2.328;2022-11-15T15:19:42;10.65;;;3.83;;
70549;SDS011;58101;48.658;2.328;2022-11-15T15:22:12;8.93;;;3.70;;
70549;SDS011;58101;48.658;2.328;2022-11-15T15:24:40;14.02;;;4.18;;
70549;SDS011;58101;48.658;2.328;2022-11-15T15:27:06;10.15;;;4.00;;
70549;SDS011;58101;48.658;2.328;2022-11-15T15:29:32;12.35;;;3.55;;
70549;SDS011;58101;48.658;2.328;2022-11-15T15:31:57;11.45;;;4.47;;
70549;SDS011;58101;48.658;2.328;2022-11-15T15:34:23;9.30;;;3.97;;
70549;SDS011;58101;48.658;2.328;2022-11-15T15:36:49;12.85;;;4.00;;
70549;SDS011;58101;48.658;2.328;2022-11-15T15:39:14;9.77;;;3.95;;
70549;SDS011;58101;48.658;2.328;2022-11-15T15:41:40;11.25;;;4.20;;
70549;SDS011;58101;48.658;2.328;2022-11-15T15:44:06;10.32;;;4.60;;
70549;SDS011;58101;48.658;2.328;2022-11-15T15:46:31;12.63;;;4.00;;
70549;SDS011;58101;48.658;2.328;2022-11-15T15:48:58;11.55;;;4.60;;
70549;SDS011;58101;48.658;2.328;2022-11-15T15:51:24;10.35;;;3.85;;
70549;SDS011;58101;48.658;2.328;2022-11-15T15:53:50;13.27;;;4.45;;
70549;SDS011;58101;48.658;2.328;2022-11-15T15:56:17;11.70;;;4.50;;
70549;SDS011;58101;48.658;2.328;2022-11-15T15:58:44;10.82;;;4.15;;
70549;SDS011;58101;48.658;2.328;2022-11-15T16:01:10;12.13;;;4.47;;
70549;SDS011;58101;48.658;2.328;2022-11-15T16:03:35;14.57;;;4.85;;
70549;SDS011;58101;48.658;2.328;2022-11-15T16:06:01;10.95;;;4.10;;
70549;SDS011;58101;48.658;2.328;2022-11-15T16:08:29;11.38;;;4.25;;
70549;SDS011;58101;48.658;2.328;2022-11-15T16:10:55;12.70;;;5.15;;
70549;SDS011;58101;48.658;2.328;2022-11-15T16:13:20;14.27;;;5.57;;
70549;SDS011;58101;48.658;2.328;2022-11-15T16:15:46;13.15;;;4.78;;
70549;SDS011;58101;48.658;2.328;2022-11-15T16:18:17;15.90;;;5.90;;
70549;SDS011;58101;48.658;2.328;2022-11-15T16:20:44;14.00;;;5.18;;
70549;SDS011;58101;48.658;2.328;2022-11-15T16:23:15;15.15;;;5.25;;
70549;SDS011;58101;48.658;2.328;2022-11-15T16:25:46;15.27;;;6.00;;
70549;SDS011;58101;48.658;2.328;2022-11-15T16:28:21;19.73;;;7.65;;
70549;SDS011;58101;48.658;2.328;2022-11-15T16:33:27;15.93;;;7.05;;
70549;SDS011;58101;48.658;2.328;2022-11-15T16:35:53;15.38;;;6.72;;
70549;SDS011;58101;48.658;2.328;2022-11-15T16:38:19;14.18;;;6.35;;
70549;SDS011;58101;48.658;2.328;2022-11-15T16:40:44;13.93;;;5.40;;
70549;SDS011;58101;48.658;2.328;2022-11-15T16:43:10;14.68;;;5.88;;
70549;SDS011;58101;48.658;2.328;2022-11-15T16:45:36;9.93;;;4.57;;
70549;SDS011;58101;48.658;2.328;2022-11-15T16:48:02;13.88;;;5.88;;
70549;SDS011;58101;48.658;2.328;2022-11-15T16:50:29;14.82;;;7.18;;
70549;SDS011;58101;48.658;2.328;2022-11-15T16:52:59;20.25;;;9.50;;
70549;SDS011;58101;48.658;2.328;2022-11-15T16:55:26;17.77;;;8.27;;
70549;SDS011;58101;48.658;2.328;2022-11-15T16:57:53;19.00;;;8.57;;
70549;SDS011;58101;48.658;2.328;2022-11-15T17:02:46;13.40;;;6.57;;
70549;SDS011;58101;48.658;2.328;2022-11-15T17:05:13;23.02;;;11.90;;
70549;SDS011;58101;48.658;2.328;2022-11-15T17:07:41;23.83;;;10.88;;
70549;SDS011;58101;48.658;2.328;2022-11-15T17:10:08;13.65;;;6.20;;
70549;SDS011;58101;48.658;2.328;2022-11-15T17:12:36;12.85;;;6.90;;
70549;SDS011;58101;48.658;2.328;2022-11-15T17:15:02;17.38;;;8.70;;
70549;SDS011;58101;48.658;2.328;2022-11-15T17:17:29;13.15;;;6.22;;
70549;SDS011;58101;48.658;2.328;2022-11-15T17:19:55;13.10;;;5.38;;
70549;SDS011;58101;48.658;2.328;2022-11-15T17:22:21;14.77;;;5.60;;
70549;SDS011;58101;48.658;2.328;2022-11-15T17:24:47;12.93;;;4.80;;
70549;SDS011;58101;48.658;2.328;2022-11-15T17:27:13;15.60;;;6.22;;
70549;SDS011;58101;48.658;2.328;2022-11-15T17:29:39;14.18;;;6.18;;